Temp     Hi    Low   Out    Dew  Wind  Wind   Wind    Hi    Hi   Wind   Heat    THW   THSW                Rain  Solar   Solar Hi Solar   UV    UV    Hi     Heat    Cool    In     In    In     In     In   In Air          Wind  Wind    ISS   Arc.
  Date    Time     Out   Temp   Temp   Hum    Pt. Speed   Dir    Run Speed   Dir  Chill  Index  Index  Index   Bar    Rain  Rate   Rad.  Energy    Rad.  Index  Dose   UV     D-D     D-D    Temp   Hum    Dew   Heat    EMC Density     ET   Samp   Tx   Recept  Int.
------------------------------------------------------------------------------------------------------------------------------------------------------------------------------------------------------------------------------------------------------------------------
 2/23/18 12:30a   31.2   31.8   31.2    86   27.5   9.0    NW   4.50  19.0     W   23.3   31.0   23.1   18.4  30.171  0.01  0.00     0     0.00      0     0.0  0.00   0.0   0.704   0.000   68.0    32   37.0   64.6   6.55  .0753    0.000   683    2    100.0   30 
 2/23/18  1:00a   30.5   31.2   30.5    87   27.1  11.0    NW   5.50  24.0     W   21.4   30.3   21.2   16.9  30.172  0.00  0.00     0     0.00      0     0.0  0.00   0.0   0.719   0.000   67.4    32   36.5   64.0   6.55  .0754    0.001   672    2    100.0   30 
 2/23/18  1:30a   26.2   30.5   26.2    93   24.5  10.0    NW   5.00  30.0   WNW   16.5   26.1   16.4   11.8  30.167  0.01  0.00     0     0.00      0     0.0  0.00   0.0   0.808   0.000   66.9    32   36.1   63.5   6.55  .0755    0.000   683    2    100.0   30 
 2/23/18  2:00a   25.9   26.2   25.9    93   24.2  13.0   NNW   6.50  26.0   NNW   14.6   25.8   14.5   10.4  30.167  0.00  0.00     0     0.00      0     0.0  0.00   0.0   0.815   0.000   66.2    32   35.4   62.8   6.55  .0756    0.001   668    2    100.0   30 
 2/23/18  2:30a   25.6   26.0   25.6    93   23.9  10.0    NW   5.00  21.0    NW   15.8   25.5   15.7   11.0  30.172  0.00  0.00     0     0.00      0     0.0  0.00   0.0   0.821   0.000   65.8    32   35.1   62.4   6.55  .0756    0.000   685    2    100.0   30 
 2/23/18  3:00a   28.5   28.7   25.6    80   23.1  12.0    NW   6.00  28.0     N   18.4   28.2   18.1    ---  30.175  0.00  0.00   ---      ---    ---     ---   ---   ---   0.760   0.000   65.4    32   34.8   61.9   6.55  .0757    0.000   577    2     86.5   30 
 2/23/18  3:30a   29.1   29.3   28.4    81   24.0  11.0   WNW   5.50  25.0   WNW   19.6   28.8   19.3   14.8  30.176  0.00  0.00     0     0.00      0     0.0  0.00   0.0   0.748   0.000   65.1    32   34.5   61.6   6.55  .0758    0.000   680    2    100.0   30 
 2/23/18  4:00a   28.4   29.1   28.4    83   23.9   8.0    NW   4.00  26.0     W   20.5   28.2   20.3   15.3  30.182  0.00  0.00     0     0.00      0     0.0  0.00   0.0   0.762   0.000   65.3    31   33.9   61.7   6.44  .0758    0.001   672    2    100.0   30 
 2/23/18  4:30a   28.1   28.4   28.1    84   23.9   8.0    NW   4.00  17.0   NNW   20.1   27.9   19.9   14.9  30.189  0.00  0.00     0     0.00      0     0.0  0.00   0.0   0.769   0.000   64.9    31   33.5   61.3   6.45  .0758    0.000   598    2     89.7   30 
 2/23/18  5:00a   27.8   28.1   27.8    86   24.2  11.0    NW   5.50  23.0   NNW   18.0   27.6   17.8   13.4  30.193  0.00  0.00     0     0.00      0     0.0  0.00   0.0   0.775   0.000   64.5    31   33.2   60.9   6.46  .0759    0.001   677    2    100.0   30 
 2/23/18  5:30a   27.7   27.8   27.5    86   24.1  11.0    NW   5.50  21.0   NNW   17.9   27.5   17.7   13.3  30.200  0.00  0.00     0     0.00      0     0.0  0.00   0.0   0.777   0.000   64.8    31   33.4   61.2   6.45  .0759    0.000   680    2    100.0   30 
 2/23/18  6:00a   27.6   27.7   27.3    86   24.0  13.0    NW   6.50  23.0   NNW   16.8   27.4   16.6   12.4  30.204  0.00  0.00     0     0.00      0     0.0  0.00   0.0   0.779   0.000   64.9    31   33.5   61.3   6.45  .0759    0.001   622    2     93.3   30 
 2/23/18  6:30a   27.5   27.6   27.4    85   23.6  12.0    NW   6.00  23.0   WNW   17.1   27.3   16.9   12.5  30.215  0.00  0.00     0     0.00      0     0.0  0.00   0.0   0.781   0.000   64.8    31   33.4   61.2   6.45  .0759    0.000   673    2    100.0   30 
 2/23/18  7:00a   27.7   27.9   27.5    82   22.9   8.0    NW   4.00  21.0    NW   19.6   27.4   19.3   14.5  30.217  0.00  0.00    10     0.43     21     0.0  0.00   0.0   0.777   0.000   65.1    30   32.9   61.4   6.25  .0759    0.001   681    2    100.0   30 
 2/23/18  7:30a   28.8   28.8   27.6    78   22.8  11.0    NW   5.50  25.0     W   19.2   28.5   18.9   17.7  30.227  0.00  0.00    41     1.76     74     0.0  0.00   0.0   0.754   0.000   65.6    30   33.3   62.0   6.25  .0758    0.000   581    2     87.1   30 
 2/23/18  8:00a   28.7   28.9   28.7    80   23.3  16.0   WNW   8.00  29.0   WNW   17.0   28.4   16.7   17.1  30.238  0.00  0.00    92     3.96    125     0.0  0.00   0.0   0.756   0.000   67.4    30   34.9   63.8   6.25  .0756    0.002   672    2    100.0   30 
 2/23/18  8:30a   28.3   28.8   28.2    82   23.5  14.0   WNW   7.00  28.0     W   17.3   28.0   17.0   16.9  30.246  0.00  0.00    80     3.44    134     0.1  0.02   0.6   0.765   0.000   67.7    30   35.1   64.1   6.25  .0756    0.000   683    2    100.0   30 
 2/23/18  9:00a   28.9   29.0   28.3    79   23.2  13.0    NW   6.50  25.0    NW   18.4   28.6   18.1   19.1  30.273  0.00  0.00   126     5.42    176     0.6  0.10   0.8   0.752   0.000   68.2    30   35.6   64.6   6.25  .0755    0.002   575    2     86.2   30 
 2/23/18  9:30a   29.1   29.1   28.5    80   23.7  13.0    NW   6.50  21.0   NNW   18.7   28.8   18.4   19.8  30.282  0.00  0.00   153     6.58    244     0.8  0.13   1.2   0.748   0.000   68.0    30   35.4   64.4   6.25  .0756    0.000   671    2    100.0   30 
 2/23/18 10:00a   29.5   29.6   29.1    78   23.5  13.0   WNW   6.50  25.0   WNW   19.2   29.2   18.9   22.0  30.289  0.00  0.00   243    10.45    348     1.3  0.21   1.8   0.740   0.000   69.0    30   36.3   65.4   6.25  .0755    0.003   684    2    100.0   30 
 2/23/18 10:30a   29.7   29.8   29.4    77   23.4  10.0    NW   5.00  21.0     W   20.9   29.3   20.5   23.5  30.301  0.00  0.00   234    10.06    308     1.3  0.21   1.7   0.735   0.000   70.1    32   38.9   66.7   6.55  .0753    0.000   574    2     86.1   30 
 2/23/18 11:00a   29.9   30.5   29.8    80   24.5  10.0    NW   5.00  18.0     W   21.1   29.6   20.8   25.6  30.301  0.00  0.00   328    14.11    385     1.9  0.31   2.9   0.731   0.000   70.1    31   38.0   66.6   6.35  .0753    0.004   678    2    100.0   30 
 2/23/18 11:30a   30.6   30.7   29.9    77   24.2   9.0    NW   4.50  20.0   WNW   22.5   30.2   22.1   26.4  30.308  0.00  0.00   297    12.77    376     1.9  0.31   3.4   0.717   0.000   69.9    31   37.9   66.4   6.35  .0753    0.000   683    2    100.0   30 
 2/23/18 12:00p   31.0   31.0   30.4    75   24.0  10.0   WNW   5.00  20.0    NW   22.5   30.6   22.1   26.3  30.302  0.00  0.00   302    12.99   1014     1.9  0.31   4.0   0.708   0.000   69.2    31   37.3   65.7   6.37  .0754    0.006   673    2    100.0   30 
 2/23/18 12:30p   32.2   32.6   31.0    72   24.2   9.0    NW   4.50  19.0    NW   24.5   31.7   24.0   29.9  30.299  0.00  0.00   383    16.47   1065     2.5  0.40   4.8   0.683   0.000   70.2    30   37.3   66.7   6.24  .0753    0.000   556    2     83.4   30 
 2/23/18  1:00p   31.6   32.2   31.5    70   22.9  11.0    NW   5.50  21.0    NW   22.7   31.1   22.2   25.4  30.297  0.00  0.00   247    10.62    376     2.0  0.32   4.1   0.696   0.000   70.4    30   37.5   66.9   6.23  .0752    0.006   684    2    100.0   30 
 2/23/18  1:30p   30.2   31.6   30.2    75   23.2  13.0    NW   6.50  23.0   NNW   20.1   29.8   19.7   22.2  30.299  0.00  0.00   208     8.95    993     1.3  0.21   3.2   0.725   0.000   70.4    30   37.5   66.9   6.23  .0753    0.000   673    2    100.0   30 
 2/23/18  2:00p   30.9   30.9   29.8    75   23.9  12.0    NW   6.00  27.0   NNW   21.4   30.5   21.0   23.8  30.297  0.00  0.00   206     8.86    302     1.5  0.24   3.2   0.710   0.000   70.9    30   37.9   67.6   6.21  .0752    0.004   686    2    100.0   30 
 2/23/18  2:30p   33.4   33.4   30.9    67   23.6  13.0    NW   6.50  22.0    NW   24.1   32.8   23.5   30.9  30.296  0.00  0.00   451    19.40    833     2.2  0.35   3.2   0.658   0.000   71.1    29   37.2   67.8   6.01  .0752    0.000   675    2    100.0   30 
 2/23/18  3:00p   36.1   36.1   33.4    62   24.3  13.0   WNW   6.50  25.0    NW   27.5   35.3   26.7   40.2  30.303  0.00  0.00   595    25.59    800     1.9  0.31   2.4   0.602   0.000   70.7    29   36.9   67.2   6.02  .0752    0.009   679    2    100.0   30 
 2/23/18  3:30p   34.5   36.0   33.6    62   22.8  11.0    NW   5.50  21.0   NNW   26.4   33.8   25.7   30.4  30.315  0.00  0.00   257    11.05    582     1.1  0.18   1.4   0.635   0.000   71.1    29   37.2   67.8   6.01  .0752    0.000   685    2    100.0   30 
 2/23/18  4:00p   33.8   35.0   33.8    59   21.0  12.0   WNW   6.00  21.0    NW   25.0   33.1   24.3   23.1  30.328  0.00  0.00   179     7.70    543     0.7  0.11   1.3   0.650   0.000   71.2    29   37.3   67.9   6.00  .0752    0.006   673    2    100.0   30 
 2/23/18  4:30p   32.4   33.8   32.4    61   20.4  10.0   WNW   5.00  22.0   WNW   24.2   31.7   23.5   19.7  30.331  0.00  0.00    50     2.15     76     0.2  0.03   0.6   0.679   0.000   71.8    29   37.8   68.7   5.98  .0751    0.000   684    2    100.0   30 
 2/23/18  5:00p   32.3   32.5   32.2    61   20.3  10.0    NW   5.00  18.0    NW   24.1   31.6   23.4   19.4  30.341  0.00  0.00    36     1.55    109     0.0  0.00   0.5   0.681   0.000   71.4    30   38.3   68.3   6.19  .0752    0.002   680    2    100.0   30 
 2/23/18  5:30p   31.4   32.3   31.4    63   20.2   4.0   WNW   2.00   7.0    NW   27.4   30.8   26.8   21.8  30.349  0.00  0.00    19     0.82     28     0.0  0.00   0.0   0.700   0.000   71.6    29   37.6   68.4   5.99  .0752    0.000   679    2    100.0   30 
 2/23/18  6:00p   30.8   31.4   30.8    63   19.7   5.0     W   2.50  11.0     W   25.7   30.2   25.1   19.7  30.358  0.00  0.00     4     0.17     12     0.0  0.00   0.0   0.713   0.000   71.8    30   38.7   68.8   6.18  .0752    0.001   683    2    100.0   30 
 2/23/18  6:30p   30.2   30.8   30.2    66   20.2   2.0     W   1.00   5.0     W   29.0   29.6   28.4   22.9  30.375  0.00  0.00     0     0.00      0     0.0  0.00   0.0   0.725   0.000   71.4    30   38.3   68.3   6.19  .0753    0.000   599    2     89.8   30 
 2/23/18  7:00p   29.1   30.2   29.1    68   19.8   1.0     W   0.50   6.0     W   29.1   28.6   28.6   23.1  30.392  0.00  0.00     0     0.00      0     0.0  0.00   0.0   0.748   0.000   71.6    31   39.3   68.6   6.32  .0753    0.001   683    2    100.0   30 
 2/23/18  7:30p   28.2   29.1   28.2    70   19.7   3.0     W   1.50   7.0     W   25.0   27.7   24.5   19.0  30.403  0.00  0.00     0     0.00      0     0.0  0.00   0.0   0.767   0.000   71.9    32   40.4   69.2   6.51  .0752    0.000   669    2    100.0   30 
 2/23/18  8:00p   27.6   28.2   27.6    71   19.4   0.0     W   0.00   6.0     W   27.6   27.2   27.2   21.7  30.414  0.00  0.00     0     0.00      0     0.0  0.00   0.0   0.779   0.000   71.4    33   40.8   68.6   6.62  .0753    0.001   560    2     84.0   30 
 2/23/18  8:30p   26.0   27.6   26.0    74   18.8   2.0     W   1.00   6.0     W   24.4   25.6   24.0   18.5  30.425  0.00  0.00     0     0.00      0     0.0  0.00   0.0   0.813   0.000   71.6    31   39.3   68.6   6.32  .0754    0.000   680    2    100.0   30 
 2/23/18  9:00p   25.3   26.0   25.3    75   18.5   1.0     W   0.50   5.0     W   25.3   25.0   25.0   19.5  30.439  0.00  0.00     0     0.00      0     0.0  0.00   0.0   0.827   0.000   71.2    31   39.0   68.1   6.33  .0755    0.001   653    2     97.9   30 
 2/23/18  9:30p   24.4   25.2   24.4    76   17.9   1.0     W   0.50   6.0     W   24.4   24.1   24.1   18.5  30.447  0.00  0.00     0     0.00      0     0.0  0.00   0.0   0.846   0.000   71.8    30   38.7   68.8   6.18  .0754    0.000   679    2    100.0   30 
 2/23/18 10:00p   23.9   24.4   23.9    77   17.7   1.0     W   0.50   4.0     W   23.9   23.6   23.6   18.0  30.450  0.00  0.00     0     0.00      0     0.0  0.00   0.0   0.856   0.000   71.2    31   39.0   68.1   6.33  .0755    0.000   655    2     98.2   30 
 2/23/18 10:30p   24.8   25.0   24.8    69   16.1   0.0     W   0.00   2.0     W   24.8   24.4   24.4    ---  30.455  0.00  0.00   ---      ---    ---     ---   ---   ---   0.838   0.000   70.7    30   37.7   67.3   6.22  .0756    0.000   673    2    100.0   30 
 2/23/18 11:00p   23.3   24.8   23.3    70   15.0   0.0     W   0.00   3.0     W   23.3   22.9   22.9    ---  30.460  0.00  0.00   ---      ---    ---     ---   ---   ---   0.869   0.000   70.1    31   38.0   66.6   6.35  .0757    0.000   685    2    100.0   30 
 2/23/18 11:30p   23.8   23.9   23.0    72   16.1   0.0     W   0.00   3.0     W   23.8   23.4   23.4    ---  30.457  0.00  0.00   ---      ---    ---     ---   ---   ---   0.858   0.000   69.4    30   36.6   65.8   6.25  .0758    0.000   633    2     94.9   30 
 2/24/18 12:00a   20.7   23.8   20.7    82   16.1   0.0   ---   0.00   0.0   ---   20.7   20.5   20.5   14.9  30.462  0.00  0.00     0     0.00      0     0.0  0.00   0.0   0.923   0.000   68.5    31   36.7   65.0   6.38  .0759    0.000   678    2    100.0   30 
 2/24/18 12:30a   20.2   20.7   20.2    83   15.9   0.0   ---   0.00   0.0   ---   20.2   20.0   20.0   14.4  30.466  0.00  0.00     0     0.00      0     0.0  0.00   0.0   0.933   0.000   67.5    32   36.6   64.1   6.55  .0761    0.000   632    2     94.8   30 
 2/24/18  1:00a   19.7   20.2   19.7    84   15.6   0.0   ---   0.00   0.0   ---   19.7   19.5   19.5   13.9  30.473  0.00  0.00     0     0.00      0     0.0  0.00   0.0   0.944   0.000   66.7    32   35.9   63.3   6.55  .0763    0.000   674    2    100.0   30 
 2/24/18  1:30a   19.3   19.7   19.3    85   15.5   0.0   ---   0.00   0.0   ---   19.3   19.1   19.1   13.5  30.482  0.00  0.00     0     0.00      0     0.0  0.00   0.0   0.952   0.000   65.9    32   35.2   62.5   6.55  .0764    0.000   609    2     91.3   30 
 2/24/18  2:00a   18.8   19.3   18.8    85   15.0   0.0   ---   0.00   0.0   ---   18.8   18.6   18.6   13.0  30.488  0.00  0.00     0     0.00      0     0.0  0.00   0.0   0.963   0.000   65.3    32   34.7   61.8   6.55  .0765    0.000   675    2    100.0   30 
 2/24/18  2:30a   17.7   18.8   17.7    84   13.7   0.0   ---   0.00   0.0   ---   17.7   17.5   17.5   11.8  30.493  0.00  0.00     0     0.00      0     0.0  0.00   0.0   0.985   0.000   64.5    32   34.0   61.0   6.56  .0767    0.000   681    2    100.0   30 
 2/24/18  3:00a   17.3   17.7   17.3    85   13.6   0.0     W   0.00   2.0     W   17.3   17.2   17.2   11.5  30.479  0.00  0.00     0     0.00      0     0.0  0.00   0.0   0.994   0.000   64.0    32   33.5   60.5   6.57  .0767    0.000   659    2     98.8   30 
 2/24/18  3:30a   16.9   17.5   16.9    78   11.2   0.0     W   0.00   2.0     W   16.9   16.7   16.7    ---  30.480  0.00  0.00   ---      ---    ---     ---   ---   ---   1.002   0.000   63.3    32   32.9   59.8   6.58  .0768    0.000   656    2     98.4   30